createdAt,value
2018-04-08T00:00:35.488Z,43.04
2018-04-08T00:01:38.640Z,43.06
2018-04-08T00:02:41.708Z,43.06
2018-04-08T00:03:44.734Z,43.06
2018-04-08T00:04:47.861Z,43.07
2018-04-08T00:05:50.893Z,43.05
2018-04-08T00:06:53.944Z,43.06
2018-04-08T00:07:57.050Z,43.05
2018-04-08T00:09:00.095Z,43.06
2018-04-08T00:10:03.202Z,43.04
2018-04-08T00:11:06.309Z,43.04
2018-04-08T00:12:09.362Z,43.03
2018-04-08T00:13:12.400Z,43.01
2018-04-08T00:14:15.457Z,43.02
2018-04-08T00:15:18.532Z,43.01
2018-04-08T00:16:21.555Z,43.00
2018-04-08T00:17:24.634Z,43.01
2018-04-08T00:18:27.700Z,42.99
2018-04-08T00:19:30.759Z,42.99
2018-04-08T00:20:33.797Z,42.99
2018-04-08T00:21:36.844Z,42.98
2018-04-08T00:22:39.938Z,42.97
2018-04-08T00:23:42.984Z,42.96
2018-04-08T00:24:46.009Z,42.95
2018-04-08T00:25:49.057Z,42.97
2018-04-08T00:26:52.088Z,42.96
2018-04-08T00:27:55.181Z,42.96
2018-04-08T00:28:58.234Z,42.94
2018-04-08T00:30:01.416Z,42.95
2018-04-08T00:31:04.434Z,42.94
2018-04-08T00:32:07.504Z,42.91
2018-04-08T00:33:10.585Z,42.86
2018-04-08T00:34:13.614Z,42.85
2018-04-08T00:35:16.686Z,42.83
2018-04-08T00:36:19.816Z,42.85
2018-04-08T00:37:22.892Z,42.85
2018-04-08T00:38:25.953Z,42.84
2018-04-08T00:39:29.048Z,42.84
2018-04-08T00:40:32.073Z,42.82
2018-04-08T00:41:35.105Z,42.83
2018-04-08T00:42:38.171Z,42.85
2018-04-08T00:43:41.307Z,42.85
2018-04-08T00:44:44.382Z,42.87
2018-04-08T00:45:47.497Z,42.88
2018-04-08T00:46:50.613Z,42.89
2018-04-08T00:47:53.681Z,42.92
2018-04-08T00:48:56.760Z,42.95
2018-04-08T00:49:59.936Z,42.97
2018-04-08T00:51:02.968Z,42.98
2018-04-08T00:52:06.037Z,43.01
2018-04-08T00:53:09.172Z,43.02
2018-04-08T00:54:24.138Z,43.03
2018-04-08T00:55:27.181Z,43.12
2018-04-08T00:56:30.282Z,43.13
2018-04-08T00:57:33.317Z,43.15
2018-04-08T00:58:36.691Z,43.16
2018-04-08T00:59:39.756Z,43.21
2018-04-08T01:00:42.819Z,43.21
2018-04-08T01:01:45.870Z,43.22
2018-04-08T01:02:48.903Z,43.23
2018-04-08T01:03:51.948Z,43.24
2018-04-08T01:04:55.010Z,43.26
2018-04-08T01:05:58.058Z,43.30
2018-04-08T01:07:01.106Z,43.33
2018-04-08T01:08:04.137Z,43.36
2018-04-08T01:09:07.180Z,43.38
2018-04-08T01:10:10.273Z,43.39
2018-04-08T01:11:13.340Z,43.44
2018-04-08T01:12:16.461Z,43.47
2018-04-08T01:13:19.564Z,43.49
2018-04-08T01:14:22.719Z,43.52
2018-04-08T01:15:25.770Z,43.52
2018-04-08T01:16:28.806Z,43.53
2018-04-08T01:17:31.860Z,43.54
2018-04-08T01:18:34.933Z,43.56
2018-04-08T01:19:37.944Z,43.58
2018-04-08T01:20:41.022Z,43.62
2018-04-08T01:21:44.068Z,43.67
2018-04-08T01:22:47.164Z,43.72
2018-04-08T01:23:50.195Z,43.74
2018-04-08T01:24:53.237Z,43.77
2018-04-08T01:25:56.321Z,43.77
2018-04-08T01:26:59.413Z,43.78
2018-04-08T01:28:02.684Z,43.78
2018-04-08T01:29:05.737Z,43.81
2018-04-08T01:30:08.772Z,43.84
2018-04-08T01:31:11.832Z,43.85
2018-04-08T01:32:14.932Z,43.89
2018-04-08T01:33:17.977Z,43.91
2018-04-08T01:34:21.040Z,43.92
2018-04-08T01:35:24.181Z,43.96
2018-04-08T01:36:27.220Z,43.96
2018-04-08T01:37:30.336Z,43.96
2018-04-08T01:38:33.381Z,43.98
2018-04-08T01:39:36.490Z,43.99
2018-04-08T01:40:39.599Z,43.97
2018-04-08T01:41:42.661Z,43.97
2018-04-08T01:42:45.693Z,43.99
2018-04-08T01:43:48.772Z,44.00
2018-04-08T01:44:51.970Z,44.00
2018-04-08T01:45:55.035Z,44.01
2018-04-08T01:46:58.136Z,44.05
2018-04-08T01:48:01.156Z,44.08
2018-04-08T01:49:04.279Z,44.10
2018-04-08T01:50:07.295Z,44.11
2018-04-08T01:51:10.368Z,44.12
2018-04-08T01:52:13.408Z,44.12
2018-04-08T01:53:16.441Z,44.12
2018-04-08T01:54:19.503Z,44.13
2018-04-08T01:55:22.535Z,44.13
2018-04-08T01:56:25.582Z,44.15
2018-04-08T01:57:28.639Z,44.17
2018-04-08T01:58:31.694Z,44.19
2018-04-08T01:59:34.815Z,44.20
2018-04-08T02:00:37.862Z,44.23
2018-04-08T02:01:40.897Z,44.25
2018-04-08T02:02:44.031Z,44.26
2018-04-08T02:03:47.149Z,44.27
2018-04-08T02:04:50.189Z,44.31
2018-04-08T02:05:53.226Z,44.34
2018-04-08T02:06:56.380Z,44.33
2018-04-08T02:07:59.461Z,44.33
2018-04-08T02:09:03.206Z,44.33
2018-04-08T02:10:06.269Z,44.34
2018-04-08T02:11:09.312Z,44.34
2018-04-08T02:12:12.350Z,44.36
2018-04-08T02:13:15.468Z,44.39
2018-04-08T02:14:18.498Z,44.39
2018-04-08T02:15:21.521Z,44.40
2018-04-08T02:16:24.565Z,44.39
2018-04-08T02:17:27.597Z,44.40
2018-04-08T02:18:30.801Z,44.39
2018-04-08T02:19:33.834Z,44.39
2018-04-08T02:20:36.868Z,44.40
2018-04-08T02:21:40.001Z,44.40
2018-04-08T02:22:43.032Z,44.38
2018-04-08T02:23:46.110Z,44.37
2018-04-08T02:24:49.217Z,44.40
2018-04-08T02:25:52.275Z,44.38
2018-04-08T02:26:55.313Z,44.36
2018-04-08T02:27:58.433Z,44.35
2018-04-08T02:29:01.595Z,44.35
2018-04-08T02:30:04.615Z,44.35
2018-04-08T02:31:07.661Z,44.36
2018-04-08T02:32:10.754Z,44.36
2018-04-08T02:33:13.835Z,44.39
2018-04-08T02:34:16.902Z,44.40
2018-04-08T02:35:19.953Z,44.35
2018-04-08T02:36:23.013Z,44.36
2018-04-08T02:37:26.056Z,44.34
2018-04-08T02:38:29.224Z,44.33
2018-04-08T02:39:32.363Z,44.33
2018-04-08T02:40:35.395Z,44.35
2018-04-08T02:41:38.431Z,44.35
2018-04-08T02:42:41.495Z,44.40
2018-04-08T02:43:44.520Z,44.42
2018-04-08T02:44:47.626Z,44.42
2018-04-08T02:45:50.691Z,44.43
2018-04-08T02:46:53.828Z,44.44
2018-04-08T02:47:56.893Z,44.45
2018-04-08T02:48:59.944Z,44.48
2018-04-08T02:50:03.049Z,44.52
2018-04-08T02:51:06.226Z,44.53
2018-04-08T02:52:09.244Z,44.56
2018-04-08T02:53:12.387Z,44.56
2018-04-08T02:54:15.446Z,44.57
2018-04-08T02:55:18.511Z,44.61
2018-04-08T02:56:21.570Z,44.62
2018-04-08T02:57:24.644Z,44.61
2018-04-08T02:58:27.679Z,44.60
2018-04-08T02:59:30.777Z,44.60
2018-04-08T03:00:33.830Z,44.59
2018-04-08T03:01:36.877Z,44.57
2018-04-08T03:02:39.941Z,44.57
2018-04-08T03:03:42.972Z,44.57
2018-04-08T03:04:46.285Z,44.58
2018-04-08T03:05:49.333Z,44.58
2018-04-08T03:06:52.399Z,44.55
2018-04-08T03:07:55.453Z,44.57
2018-04-08T03:08:58.564Z,44.57
2018-04-08T03:10:01.612Z,44.55
2018-04-08T03:11:04.687Z,44.57
2018-04-08T03:12:07.718Z,44.54
2018-04-08T03:13:10.776Z,44.53
2018-04-08T03:14:13.884Z,44.53
2018-04-08T03:15:16.908Z,44.53
2018-04-08T03:16:20.113Z,44.56
2018-04-08T03:17:23.186Z,44.58
2018-04-08T03:18:26.231Z,44.53
2018-04-08T03:19:29.269Z,44.53
2018-04-08T03:20:33.180Z,44.51
2018-04-08T03:21:37.218Z,44.51
2018-04-08T03:22:40.261Z,44.51
2018-04-08T03:23:43.309Z,44.50
2018-04-08T03:24:46.349Z,44.47
2018-04-08T03:25:49.485Z,44.44
2018-04-08T03:26:52.588Z,44.43
2018-04-08T03:27:55.634Z,44.41
2018-04-08T03:28:58.681Z,44.40
2018-04-08T03:30:01.764Z,44.41
2018-04-08T03:31:04.816Z,44.38
2018-04-08T03:32:07.880Z,44.35
2018-04-08T03:33:10.937Z,44.34
2018-04-08T03:34:14.098Z,44.32
2018-04-08T03:35:17.156Z,44.33
2018-04-08T03:36:20.211Z,44.31
2018-04-08T03:37:23.317Z,44.28
2018-04-08T03:38:26.393Z,44.25
2018-04-08T03:39:29.530Z,44.21
2018-04-08T03:40:32.568Z,44.17
2018-04-08T03:41:35.678Z,44.15
2018-04-08T03:42:38.856Z,44.13
2018-04-08T03:43:41.888Z,44.13
2018-04-08T03:44:44.944Z,44.11
2018-04-08T03:45:47.971Z,44.09
2018-04-08T03:46:51.102Z,44.08
2018-04-08T03:47:54.159Z,44.05
2018-04-08T03:48:57.200Z,44.03
2018-04-08T03:50:00.270Z,44.01
2018-04-08T03:51:03.327Z,44.02
2018-04-08T03:52:06.404Z,44.00
2018-04-08T03:53:09.513Z,43.98
2018-04-08T03:54:12.613Z,43.98
2018-04-08T03:55:15.672Z,43.98
2018-04-08T03:56:18.825Z,43.98
2018-04-08T03:57:21.851Z,43.96
2018-04-08T03:58:24.940Z,43.95
2018-04-08T03:59:28.040Z,43.95
2018-04-08T04:00:31.112Z,43.94
2018-04-08T04:01:34.218Z,43.94
2018-04-08T04:02:37.282Z,43.95
2018-04-08T04:03:40.365Z,43.97
2018-04-08T04:04:43.444Z,43.99
2018-04-08T04:05:46.528Z,44.00
2018-04-08T04:06:49.601Z,44.00
2018-04-08T04:07:52.680Z,44.00
2018-04-08T04:08:55.780Z,44.00
2018-04-08T04:09:58.825Z,44.01
2018-04-08T04:11:01.971Z,44.02
2018-04-08T04:12:04.992Z,44.08
2018-04-08T04:13:08.042Z,44.09
2018-04-08T04:14:11.145Z,44.10
2018-04-08T04:15:14.233Z,44.15
2018-04-08T04:16:17.408Z,44.16
2018-04-08T04:17:20.459Z,44.15
2018-04-08T04:18:35.188Z,44.14
2018-04-08T04:19:50.300Z,44.20
2018-04-08T04:21:05.226Z,44.24
2018-04-08T04:22:20.041Z,44.28
2018-04-08T04:23:34.944Z,44.31
2018-04-08T04:24:49.897Z,44.34
2018-04-08T04:27:25.784Z,44.42
2018-04-08T04:28:28.918Z,44.38
2018-04-08T04:29:32.011Z,44.35
2018-04-08T04:30:35.046Z,44.36
2018-04-08T04:31:38.146Z,44.35
2018-04-08T04:32:41.215Z,44.36
2018-04-08T04:33:44.238Z,44.35
2018-04-08T04:34:47.309Z,44.36
2018-04-08T04:35:50.360Z,44.37
2018-04-08T04:36:53.420Z,44.38
2018-04-08T04:37:56.476Z,44.38
2018-04-08T04:38:59.516Z,44.40
2018-04-08T04:40:02.586Z,44.41
2018-04-08T04:41:05.621Z,44.43
2018-04-08T04:42:08.693Z,44.42
2018-04-08T04:43:11.728Z,44.43
2018-04-08T04:44:14.813Z,44.45
2018-04-08T04:45:17.837Z,44.48
2018-04-08T04:46:20.953Z,44.49
2018-04-08T04:47:24.152Z,44.51
2018-04-08T04:48:27.258Z,44.56
2018-04-08T04:49:30.304Z,44.57
2018-04-08T04:50:33.351Z,44.61
2018-04-08T04:51:36.389Z,44.60
2018-04-08T04:52:39.460Z,44.61
2018-04-08T04:53:42.505Z,44.61
2018-04-08T04:54:45.548Z,44.64
2018-04-08T04:55:48.631Z,44.67
2018-04-08T04:56:51.727Z,44.70
2018-04-08T04:57:54.780Z,44.71
2018-04-08T04:58:57.918Z,44.74
2018-04-08T05:00:00.969Z,44.75
2018-04-08T05:01:04.043Z,44.79
2018-04-08T05:02:07.152Z,44.83
2018-04-08T05:03:10.237Z,44.86
2018-04-08T05:04:13.284Z,44.87
2018-04-08T05:05:16.374Z,44.91
2018-04-08T05:06:19.416Z,44.96
2018-04-08T05:07:22.511Z,45.04
2018-04-08T05:08:25.640Z,45.08
2018-04-08T05:09:28.693Z,45.12
2018-04-08T05:10:31.735Z,45.16
2018-04-08T05:11:34.838Z,45.17
2018-04-08T05:12:37.875Z,45.18
2018-04-08T05:13:40.966Z,45.15
2018-04-08T05:14:44.015Z,45.17
2018-04-08T05:15:47.127Z,45.18
2018-04-08T05:16:50.184Z,45.16
2018-04-08T05:17:53.319Z,45.19
2018-04-08T05:18:57.239Z,45.22
2018-04-08T05:20:00.341Z,45.26
2018-04-08T05:21:03.410Z,45.25
2018-04-08T05:22:06.462Z,45.26
2018-04-08T05:23:09.526Z,45.28
2018-04-08T05:24:12.582Z,45.27
2018-04-08T05:25:15.680Z,45.27
2018-04-08T05:26:18.773Z,45.32
2018-04-08T05:27:21.793Z,45.29
2018-04-08T05:28:24.861Z,45.28
2018-04-08T05:29:27.924Z,45.21
2018-04-08T05:30:30.959Z,45.17
2018-04-08T05:31:34.068Z,45.16
2018-04-08T05:32:37.125Z,45.19
2018-04-08T05:33:40.160Z,45.17
2018-04-08T05:34:43.243Z,45.07
2018-04-08T05:35:46.318Z,45.02
2018-04-08T05:36:50.044Z,44.98
2018-04-08T05:37:53.336Z,45.01
2018-04-08T05:38:57.412Z,44.95
2018-04-08T05:40:01.575Z,44.89
2018-04-08T05:41:04.652Z,44.86
2018-04-08T05:42:07.725Z,44.83
2018-04-08T05:43:10.804Z,44.75
2018-04-08T05:44:13.865Z,44.71
2018-04-08T05:45:16.942Z,44.68
2018-04-08T05:46:19.996Z,44.66
2018-04-08T05:47:23.223Z,44.65
2018-04-08T05:48:26.256Z,44.66
2018-04-08T05:49:29.363Z,44.71
2018-04-08T05:50:32.414Z,44.73
2018-04-08T05:51:35.518Z,44.74
2018-04-08T05:52:38.540Z,44.62
2018-04-08T05:53:41.593Z,44.58
2018-04-08T05:54:44.629Z,44.53
2018-04-08T05:55:47.743Z,44.45
2018-04-08T05:56:50.773Z,44.37
2018-04-08T05:57:53.841Z,44.31
2018-04-08T05:58:56.893Z,44.24
2018-04-08T05:59:59.957Z,44.16
2018-04-08T06:01:03.443Z,44.14
2018-04-08T06:02:06.570Z,44.08
2018-04-08T06:03:09.621Z,44.06
2018-04-08T06:04:12.670Z,44.06
2018-04-08T06:05:15.744Z,44.02
2018-04-08T06:06:18.795Z,44.02
2018-04-08T06:07:21.832Z,44.01
2018-04-08T06:08:24.879Z,44.02
2018-04-08T06:09:27.926Z,44.01
2018-04-08T06:10:30.989Z,43.98
2018-04-08T06:11:34.045Z,43.99
2018-04-08T06:12:37.150Z,43.98
2018-04-08T06:13:40.265Z,43.97
2018-04-08T06:14:43.371Z,43.96
2018-04-08T06:15:46.408Z,43.96
2018-04-08T06:16:49.493Z,43.89
2018-04-08T06:17:52.549Z,43.85
2018-04-08T06:18:55.700Z,43.83
2018-04-08T06:19:58.790Z,43.81
2018-04-08T06:21:01.817Z,43.73
2018-04-08T06:22:04.884Z,43.66
2018-04-08T06:23:07.994Z,43.58
2018-04-08T06:24:11.046Z,43.49
2018-04-08T06:25:14.093Z,43.35
2018-04-08T06:26:17.213Z,43.25
2018-04-08T06:27:20.354Z,43.21
2018-04-08T06:28:23.401Z,43.07
2018-04-08T06:29:26.541Z,42.93
2018-04-08T06:30:29.568Z,42.80
2018-04-08T06:31:32.651Z,42.69
2018-04-08T06:32:35.740Z,42.63
2018-04-08T06:33:38.764Z,42.61
2018-04-08T06:34:41.829Z,42.53
2018-04-08T06:35:44.897Z,42.47
2018-04-08T06:36:47.985Z,42.42
2018-04-08T06:37:51.036Z,42.38
2018-04-08T06:38:54.101Z,42.38
2018-04-08T06:39:57.137Z,42.37
2018-04-08T06:41:00.205Z,42.38
2018-04-08T06:42:03.240Z,42.43
2018-04-08T06:43:06.301Z,42.43
2018-04-08T06:44:09.408Z,42.38
2018-04-08T06:45:12.498Z,42.38
2018-04-08T06:46:15.646Z,42.30
2018-04-08T06:47:18.666Z,42.23
2018-04-08T06:48:21.926Z,42.22
2018-04-08T06:49:24.987Z,42.23
2018-04-08T06:50:28.144Z,42.24
2018-04-08T06:51:31.225Z,42.21
2018-04-08T06:52:34.321Z,42.15
2018-04-08T06:53:37.378Z,42.09
2018-04-08T06:54:40.426Z,42.03
2018-04-08T06:55:43.473Z,41.99
2018-04-08T06:56:46.524Z,41.99
2018-04-08T06:57:49.639Z,42.00
2018-04-08T06:58:52.760Z,42.07
2018-04-08T06:59:55.822Z,42.08
2018-04-08T07:00:58.866Z,42.08
2018-04-08T07:02:02.004Z,42.11
2018-04-08T07:03:05.193Z,42.17
2018-04-08T07:04:08.271Z,42.15
2018-04-08T07:05:11.342Z,42.10
2018-04-08T07:06:14.397Z,42.02
2018-04-08T07:07:17.457Z,41.96
2018-04-08T07:08:20.625Z,41.89
2018-04-08T07:09:23.673Z,41.85
2018-04-08T07:10:26.983Z,41.78
2018-04-08T07:11:30.115Z,41.70
2018-04-08T07:12:33.221Z,41.67
2018-04-08T07:13:36.318Z,41.62
2018-04-08T07:14:39.454Z,41.57
2018-04-08T07:15:43.438Z,41.47
2018-04-08T07:16:46.523Z,41.38
2018-04-08T07:17:49.535Z,41.28
2018-04-08T07:18:52.660Z,41.23
2018-04-08T07:19:55.737Z,41.19
2018-04-08T07:20:58.842Z,41.19
2018-04-08T07:22:01.990Z,41.17
2018-04-08T07:23:05.096Z,41.13
2018-04-08T07:24:08.159Z,41.13
2018-04-08T07:25:11.279Z,41.12
2018-04-08T07:26:14.314Z,41.11
2018-04-08T07:27:17.376Z,41.06
2018-04-08T07:28:20.459Z,40.94
2018-04-08T07:29:23.504Z,40.89
2018-04-08T07:30:26.735Z,40.81
2018-04-08T07:31:29.808Z,40.78
2018-04-08T07:32:32.985Z,40.72
2018-04-08T07:33:36.081Z,40.70
2018-04-08T07:34:39.177Z,40.69
2018-04-08T07:35:42.271Z,40.67
2018-04-08T07:36:45.305Z,40.57
2018-04-08T07:37:48.433Z,40.57
2018-04-08T07:38:51.622Z,40.49
2018-04-08T07:39:54.690Z,40.44
2018-04-08T07:40:57.911Z,40.41
2018-04-08T07:42:00.987Z,40.37
2018-04-08T07:43:04.066Z,40.34
2018-04-08T07:44:07.095Z,40.29
2018-04-08T07:45:10.225Z,40.22
2018-04-08T07:46:13.280Z,40.12
2018-04-08T07:47:16.356Z,40.03
2018-04-08T07:48:19.565Z,39.95
2018-04-08T07:49:22.781Z,39.93
2018-04-08T07:50:25.873Z,39.94
2018-04-08T07:51:28.951Z,39.93
2018-04-08T07:52:32.058Z,39.88
2018-04-08T07:53:35.097Z,39.85
2018-04-08T07:54:38.148Z,39.84
2018-04-08T07:55:41.293Z,39.81
2018-04-08T07:56:44.396Z,39.73
2018-04-08T07:57:47.474Z,39.71
2018-04-08T07:58:50.516Z,39.68
2018-04-08T07:59:53.573Z,39.65
2018-04-08T08:00:56.625Z,39.61
2018-04-08T08:01:59.876Z,39.55
2018-04-08T08:03:02.928Z,39.48
2018-04-08T08:04:05.975Z,39.45
2018-04-08T08:05:09.182Z,39.46
2018-04-08T08:06:12.312Z,39.49
2018-04-08T08:07:15.398Z,39.44
2018-04-08T08:08:18.433Z,39.39
2018-04-08T08:09:21.540Z,39.33
2018-04-08T08:10:24.568Z,39.33
2018-04-08T08:11:27.685Z,39.26
2018-04-08T08:12:30.981Z,39.24
2018-04-08T08:13:34.053Z,39.22
2018-04-08T08:14:37.177Z,39.20
2018-04-08T08:15:40.280Z,39.19
2018-04-08T08:16:43.403Z,39.20
2018-04-08T08:17:46.472Z,39.19
2018-04-08T08:18:49.504Z,39.20
2018-04-08T08:19:52.585Z,39.22
2018-04-08T08:20:55.688Z,39.20
2018-04-08T08:21:58.773Z,39.21
2018-04-08T08:23:01.886Z,39.19
2018-04-08T08:24:04.923Z,39.12
2018-04-08T08:25:07.982Z,38.95
2018-04-08T08:26:11.062Z,38.88
2018-04-08T08:27:14.138Z,38.84
2018-04-08T08:28:17.213Z,38.83
2018-04-08T08:29:20.255Z,38.88
2018-04-08T08:30:23.316Z,38.88
2018-04-08T08:31:26.408Z,38.90
2018-04-08T08:32:29.466Z,38.86
2018-04-08T08:33:32.567Z,38.86
2018-04-08T08:34:35.620Z,38.75
2018-04-08T08:35:39.492Z,38.67
2018-04-08T08:36:42.558Z,38.65
2018-04-08T08:37:45.634Z,38.55
2018-04-08T08:38:48.725Z,38.55
2018-04-08T08:39:51.829Z,38.56
2018-04-08T08:40:54.966Z,38.58
2018-04-08T08:41:58.025Z,38.50
2018-04-08T08:43:01.174Z,38.48
2018-04-08T08:44:04.251Z,38.43
2018-04-08T08:45:07.305Z,38.46
2018-04-08T08:46:10.418Z,38.42
2018-04-08T08:47:13.474Z,38.42
2018-04-08T08:48:16.563Z,38.42
2018-04-08T08:49:19.792Z,38.39
2018-04-08T08:50:22.968Z,38.38
2018-04-08T08:51:26.021Z,38.37
2018-04-08T08:52:29.345Z,38.30
2018-04-08T08:53:32.396Z,38.21
2018-04-08T08:54:35.512Z,38.19
2018-04-08T08:55:38.548Z,38.17
2018-04-08T08:56:41.640Z,38.18
2018-04-08T08:57:44.770Z,38.20
2018-04-08T08:58:47.804Z,38.19
2018-04-08T08:59:50.953Z,38.28
2018-04-08T09:00:54.149Z,38.36
2018-04-08T09:01:57.217Z,38.42
2018-04-08T09:03:00.282Z,38.45
2018-04-08T09:04:03.331Z,38.49
2018-04-08T09:05:06.393Z,38.47
2018-04-08T09:06:09.436Z,38.40
2018-04-08T09:07:12.625Z,38.37
2018-04-08T09:08:15.919Z,38.33
2018-04-08T09:09:19.889Z,38.27
2018-04-08T09:10:23.000Z,38.07
2018-04-08T09:11:26.420Z,37.95
2018-04-08T09:12:29.578Z,37.92
2018-04-08T09:13:32.628Z,37.98
2018-04-08T09:14:35.762Z,38.02
2018-04-08T09:15:38.872Z,38.04
2018-04-08T09:16:41.962Z,37.88
2018-04-08T09:17:45.029Z,37.71
2018-04-08T09:18:58.058Z,37.47
2018-04-08T09:20:01.210Z,37.28
2018-04-08T09:22:52.127Z,36.64
2018-04-08T09:24:13.109Z,36.46
2018-04-08T09:25:17.044Z,36.34
2018-04-08T09:26:20.157Z,36.23
2018-04-08T09:27:23.222Z,36.12
2018-04-08T09:28:26.412Z,36.05
2018-04-08T09:29:29.459Z,36.10
2018-04-08T09:30:32.569Z,36.08
2018-04-08T09:31:35.628Z,36.10
2018-04-08T09:32:38.686Z,36.07
2018-04-08T09:33:41.797Z,36.10
2018-04-08T09:34:44.845Z,36.16
2018-04-08T09:35:47.899Z,36.13
2018-04-08T09:36:51.041Z,36.13
2018-04-08T09:37:54.246Z,36.08
2018-04-08T09:38:57.327Z,36.01
2018-04-08T09:40:00.360Z,36.00
2018-04-08T09:41:03.416Z,36.03
2018-04-08T09:42:06.525Z,36.11
2018-04-08T09:43:09.589Z,36.17
2018-04-08T09:44:12.618Z,36.11
2018-04-08T09:45:15.792Z,36.01
2018-04-08T09:46:18.865Z,35.91
2018-04-08T09:47:21.957Z,35.82
2018-04-08T09:48:25.022Z,35.75
2018-04-08T09:49:28.409Z,35.69
2018-04-08T09:50:31.570Z,35.61
2018-04-08T09:51:34.664Z,35.54
2018-04-08T09:52:37.747Z,35.48
2018-04-08T09:53:40.853Z,35.47
2018-04-08T09:54:43.905Z,35.46
2018-04-08T09:55:46.961Z,35.42
2018-04-08T09:56:50.009Z,35.38
2018-04-08T09:57:53.548Z,35.29
2018-04-08T09:58:57.354Z,35.27
2018-04-08T10:00:00.513Z,35.28
2018-04-08T10:01:18.468Z,35.23
2018-04-08T10:04:03.892Z,35.27
2018-04-08T10:05:10.643Z,35.22
2018-04-08T10:06:13.766Z,35.20
2018-04-08T10:07:16.812Z,35.10
2018-04-08T10:08:19.900Z,35.00
2018-04-08T10:09:22.984Z,34.96
2018-04-08T10:10:26.176Z,34.91
2018-04-08T10:11:29.243Z,34.88
2018-04-08T10:12:32.300Z,34.91
2018-04-08T10:13:35.339Z,34.90
2018-04-08T10:14:39.032Z,34.83
2018-04-08T10:15:42.076Z,34.82
2018-04-08T10:16:45.221Z,34.77
2018-04-08T10:17:48.311Z,34.72
2018-04-08T10:18:51.353Z,34.68
2018-04-08T10:19:54.433Z,34.64
2018-04-08T10:20:57.541Z,34.61
2018-04-08T10:22:00.632Z,34.63
2018-04-08T10:23:03.932Z,34.59
2018-04-08T10:24:07.059Z,34.60
2018-04-08T10:25:10.221Z,34.60
2018-04-08T10:26:13.315Z,34.61
2018-04-08T10:27:16.464Z,34.60
2018-04-08T10:28:19.715Z,34.60
2018-04-08T10:29:22.898Z,34.62
2018-04-08T10:30:26.821Z,34.69
2018-04-08T10:31:30.006Z,34.71
2018-04-08T10:32:33.225Z,34.72
2018-04-08T10:33:36.349Z,34.72
2018-04-08T10:34:39.432Z,34.73
2018-04-08T10:35:42.640Z,34.74
2018-04-08T10:36:45.706Z,34.76
2018-04-08T10:37:48.820Z,34.70
2018-04-08T10:38:52.953Z,34.66
2018-04-08T10:39:56.169Z,34.66
2018-04-08T10:40:59.264Z,34.62
2018-04-08T10:42:02.443Z,34.53
2018-04-08T10:43:05.548Z,34.48
2018-04-08T10:44:08.657Z,34.41
2018-04-08T10:45:11.707Z,34.42
2018-04-08T10:46:14.940Z,34.38
2018-04-08T10:47:18.025Z,34.28
2018-04-08T10:48:21.091Z,34.20
2018-04-08T10:49:24.164Z,34.14
2018-04-08T10:50:27.213Z,34.16
2018-04-08T10:51:30.566Z,34.24
2018-04-08T10:52:33.609Z,34.23
2018-04-08T10:53:36.694Z,34.22
2018-04-08T10:54:39.773Z,34.21
2018-04-08T10:55:46.744Z,34.17
2018-04-08T10:56:51.124Z,34.19
2018-04-08T10:57:58.624Z,34.10
2018-04-08T10:59:01.770Z,34.02
2018-04-08T11:00:04.825Z,34.02
2018-04-08T11:01:07.895Z,33.97
2018-04-08T11:02:11.288Z,33.93
2018-04-08T11:03:14.336Z,33.90
2018-04-08T11:04:17.412Z,33.86
2018-04-08T11:05:20.532Z,33.74
2018-04-08T11:06:30.409Z,33.62
2018-04-08T11:07:36.626Z,33.70
2018-04-08T11:08:47.768Z,33.55
2018-04-08T11:09:54.620Z,33.42
2018-04-08T11:11:19.836Z,33.31
2018-04-08T11:12:22.937Z,33.24
2018-04-08T11:13:26.316Z,33.14
2018-04-08T11:14:36.521Z,32.99
2018-04-08T11:15:39.591Z,32.95
2018-04-08T11:16:42.678Z,32.92
2018-04-08T11:17:49.482Z,32.82
2018-04-08T11:18:52.620Z,32.89
2018-04-08T11:19:55.876Z,32.88
2018-04-08T11:20:59.171Z,32.81
2018-04-08T11:22:02.250Z,32.81
2018-04-08T11:23:05.279Z,32.82
2018-04-08T11:24:09.568Z,32.88
2018-04-08T11:25:12.625Z,32.98
2018-04-08T11:26:15.814Z,33.08
2018-04-08T11:27:19.003Z,33.08
2018-04-08T11:28:22.133Z,33.10
2018-04-08T11:29:25.270Z,33.12
2018-04-08T11:30:28.726Z,33.12
2018-04-08T11:31:31.850Z,33.18
2018-04-08T11:32:35.072Z,33.16
2018-04-08T11:33:38.111Z,33.17
2018-04-08T11:34:41.222Z,33.19
2018-04-08T11:35:44.283Z,33.21
2018-04-08T11:36:47.340Z,33.21
2018-04-08T11:37:50.405Z,33.13
2018-04-08T11:38:53.568Z,33.05
2018-04-08T11:39:56.685Z,32.88
2018-04-08T11:40:59.756Z,32.87
2018-04-08T11:42:02.870Z,32.84
2018-04-08T11:43:05.990Z,32.91
2018-04-08T11:44:09.020Z,32.95
2018-04-08T11:45:12.118Z,33.06
2018-04-08T11:46:15.183Z,33.10
2018-04-08T11:47:18.340Z,33.11
2018-04-08T11:48:21.414Z,33.19
2018-04-08T11:49:24.522Z,33.17
2018-04-08T11:50:27.674Z,33.12
2018-04-08T11:51:30.753Z,32.91
2018-04-08T11:52:33.981Z,32.89
2018-04-08T11:53:37.046Z,32.92
2018-04-08T11:54:40.324Z,32.96
2018-04-08T11:55:43.400Z,33.03
2018-04-08T11:56:46.446Z,32.95
2018-04-08T11:57:49.500Z,33.01
2018-04-08T11:58:52.553Z,33.01
2018-04-08T11:59:55.658Z,32.95
2018-04-08T12:00:58.879Z,32.87
2018-04-08T12:02:01.972Z,32.83
2018-04-08T12:03:05.629Z,32.82
2018-04-08T12:04:09.393Z,32.75
2018-04-08T12:05:12.582Z,32.66
2018-04-08T12:06:15.747Z,32.56
2018-04-08T12:07:18.832Z,32.52
2018-04-08T12:08:21.880Z,32.34
2018-04-08T12:09:25.019Z,32.27
2018-04-08T12:10:28.160Z,32.19
2018-04-08T12:11:31.340Z,32.15
2018-04-08T12:12:34.511Z,32.05
2018-04-08T12:13:37.636Z,32.01
2018-04-08T12:14:40.667Z,31.93
2018-04-08T12:15:44.716Z,31.88
2018-04-08T12:16:48.530Z,32.06
2018-04-08T12:17:51.698Z,32.08
2018-04-08T12:18:54.796Z,32.00
2018-04-08T12:19:57.851Z,32.03
2018-04-08T12:21:00.998Z,32.08
2018-04-08T12:22:04.144Z,32.21
2018-04-08T12:23:07.383Z,32.38
2018-04-08T12:24:10.472Z,32.50
2018-04-08T12:25:14.341Z,32.43
2018-04-08T12:26:21.743Z,32.40
2018-04-08T12:27:24.906Z,32.42
2018-04-08T12:28:28.114Z,32.38
2018-04-08T12:29:31.312Z,32.43
2018-04-08T12:30:35.338Z,32.48
2018-04-08T12:31:38.439Z,32.46
2018-04-08T12:32:41.588Z,32.41
2018-04-08T12:33:44.712Z,32.49
2018-04-08T12:34:47.802Z,32.52
2018-04-08T12:35:50.884Z,32.51
2018-04-08T12:36:54.008Z,32.43
2018-04-08T12:37:57.116Z,32.45
2018-04-08T12:39:00.200Z,32.48
2018-04-08T12:40:03.254Z,32.52
2018-04-08T12:41:06.329Z,32.67
2018-04-08T12:42:09.401Z,32.80
2018-04-08T12:43:12.532Z,32.81
2018-04-08T12:44:15.615Z,32.82
2018-04-08T12:45:18.659Z,32.86
2018-04-08T12:46:22.306Z,32.90
2018-04-08T12:47:25.432Z,32.91
2018-04-08T12:48:28.573Z,33.00
2018-04-08T12:49:31.646Z,33.02
2018-04-08T12:50:34.710Z,33.00
2018-04-08T12:51:37.882Z,33.03
2018-04-08T12:52:40.968Z,33.03
2018-04-08T12:53:44.116Z,32.99
2018-04-08T12:54:47.180Z,32.97
2018-04-08T12:55:50.265Z,33.05
2018-04-08T12:56:53.449Z,33.05
2018-04-08T12:57:56.591Z,33.06
2018-04-08T12:58:59.705Z,33.11
2018-04-08T13:00:02.790Z,33.15
2018-04-08T13:01:05.918Z,33.21
2018-04-08T13:02:08.982Z,33.28
2018-04-08T13:03:12.104Z,33.28
2018-04-08T13:04:15.238Z,33.29
2018-04-08T13:05:18.310Z,33.28
2018-04-08T13:06:21.364Z,33.24
2018-04-08T13:07:24.451Z,33.13
2018-04-08T13:08:27.524Z,32.99
2018-04-08T13:09:30.599Z,32.91
2018-04-08T13:10:33.683Z,32.86
2018-04-08T13:11:36.820Z,32.80
2018-04-08T13:12:39.978Z,32.76
2018-04-08T13:13:43.084Z,32.60
2018-04-08T13:14:46.175Z,32.40
2018-04-08T13:15:49.241Z,32.26
2018-04-08T13:16:52.352Z,32.13
2018-04-08T13:17:55.460Z,32.07
2018-04-08T13:18:58.607Z,32.07
2018-04-08T13:20:01.708Z,32.03
2018-04-08T13:21:04.840Z,32.03
2018-04-08T13:22:07.896Z,32.08
2018-04-08T13:23:10.972Z,32.05
2018-04-08T13:24:14.006Z,31.96
2018-04-08T13:25:17.149Z,31.87
2018-04-08T13:26:20.224Z,31.87
2018-04-08T13:27:23.331Z,31.96
2018-04-08T13:28:26.395Z,31.98
2018-04-08T13:29:29.457Z,31.99
2018-04-08T13:30:32.667Z,32.05
2018-04-08T13:31:35.723Z,32.11
2018-04-08T13:32:38.865Z,31.94
2018-04-08T13:33:41.963Z,31.92
2018-04-08T13:34:45.007Z,31.82
2018-04-08T13:35:48.153Z,31.60
2018-04-08T13:36:51.201Z,31.33
2018-04-08T13:37:54.259Z,31.20
2018-04-08T13:38:57.400Z,31.14
2018-04-08T13:40:00.646Z,31.10
2018-04-08T13:41:03.722Z,30.95